This is the latest recevied weather packets stored in our database for station/object VK4CWL-13. If no packets are shown the sender has not sent any weather packets the latest 10 day(s).
| Time | Temp. | Humidity | Pressure | Rain* | Wind** | Luminosity | Snow |
|---|---|---|---|---|---|---|---|
| 1788270701 | 16.11° C | 75% | 1024.7 hPa | 0 mm | - | - | - |
| 1788270399 | 16.11° C | 75% | 1024.8 hPa | 0 mm | - | - | - |
| 1788270097 | 16.67° C | 71% | 1024.6 hPa | 0 mm | - | - | - |
| 1788269795 | 16.67° C | 71% | 1024.6 hPa | 0 mm | - | - | - |
| 1788269492 | 16.67° C | 70% | 1024.5 hPa | 0 mm | - | - | - |
| 1788269190 | 16.67° C | 70% | 1024.6 hPa | 0 mm | - | - | - |
| 1788268887 | 16.67° C | 69% | 1024.7 hPa | 0 mm | - | - | - |
| 1788268585 | 16.67° C | 69% | 1024.6 hPa | 0 mm | - | - | - |
| 1788268283 | 16.67° C | 69% | 1024.7 hPa | 0 mm | - | - | - |
| 1788267980 | 16.67° C | 70% | 1024.7 hPa | 0 mm | - | - | - |
| 1788267678 | 17.22° C | 69% | 1024.8 hPa | 0 mm | - | - | - |
| 1788267376 | 17.22° C | 68% | 1024.8 hPa | 0 mm | - | - | - |
| 1788267074 | 17.22° C | 68% | 1024.8 hPa | 0 mm | - | - | - |
| 1788266772 | 17.22° C | 67% | 1024.7 hPa | 0 mm | - | - | - |
| 1788266470 | 17.22° C | 67% | 1024.7 hPa | 0 mm | - | - | - |
| 1788266167 | 17.22° C | 65% | 1024.6 hPa | 0 mm | - | - | - |
| 1788265864 | 17.22° C | 67% | 1024.6 hPa | 0 mm | - | - | - |
| 1788265562 | 17.22° C | 63% | 1024.5 hPa | 0 mm | - | - | - |
| 1788265260 | 17.22° C | 62% | 1024.5 hPa | 0 mm | - | - | - |
| 1788264958 | 16.67° C | 60% | 1024.3 hPa | 0 mm | - | - | - |
| 1788264655 | 16.67° C | 61% | 1024.4 hPa | 0 mm | - | - | - |
| 1788264353 | 16.67° C | 57% | 1024.2 hPa | 0 mm | - | - | - |
| 1788264051 | 16.67° C | 58% | 1024.2 hPa | 0 mm | - | - | - |
| 1788263749 | 16.67° C | 54% | 1024 hPa | 0 mm | - | - | - |
| 1788263447 | 16.67° C | 48% | 1023.6 hPa | 0 mm | - | - | - |
* Rain since midnight (hover to see other rain measurements)
** Current wind speed in m/s (hover to see current wind gust speed)